Time;durP1;ratioP1;P1;durP2;ratioP2;P2;SDS_P1;SDS_P2;PMS_P1;PMS_P2;Temp;Humidity;BMP_temperature;BMP_pressure;BME280_temperature;BME280_humidity;BME280_pressure;Samples;Min_cycle;Max_cycle;Signal;HPM_P1;HPM_P2
2021/05/31 02:23:02;;;;;;;;;;;6.70;99.90;;;;;;10542810;27;20321;-78
2021/05/31 02:28:04;;;;;;;;;;;7.20;99.90;;;;;;10569279;28;19924;-78
2021/05/31 02:33:06;;;;;;;;;;;7.50;99.90;;;;;;10560485;28;20007;-78
2021/05/31 02:38:08;;;;;;;;;;;7.90;99.90;;;;;;10501823;28;19924;-78
2021/05/31 02:43:10;;;;;;;;;;;8.20;99.90;;;;;;10582420;28;19924;-78
2021/05/31 02:48:12;;;;;;;;;;;8.30;99.90;;;;;;10572647;28;20373;-78
2021/05/31 02:53:14;;;;;;;;;;;8.40;99.90;;;;;;10571595;28;19928;-78
2021/05/31 02:58:17;;;;;;;;;;;8.50;99.90;;;;;;10547857;28;19968;-79
2021/05/31 03:03:19;;;;;;;;;;;8.40;99.90;;;;;;10531304;28;20431;-78
2021/05/31 03:08:21;;;;;;;;;;;8.40;99.90;;;;;;10543970;28;20434;-79
2021/05/31 03:13:23;;;;;;;;;;;8.40;99.90;;;;;;10524600;28;20346;-78
2021/05/31 03:18:24;;;;;;;;;;;8.50;99.90;;;;;;10528142;28;20002;-78
2021/05/31 03:23:26;;;;;;;;;;;8.70;99.90;;;;;;10519937;28;20398;-78
2021/05/31 03:28:28;;;;;;;;;;;8.70;99.90;;;;;;10558131;28;19968;-79
2021/05/31 03:33:30;;;;;;;;;;;8.70;99.90;;;;;;10541789;28;19978;-78
2021/05/31 03:38:32;;;;;;;;;;;8.60;99.90;;;;;;10533800;28;20406;-79
2021/05/31 03:43:34;;;;;;;;;;;8.60;99.90;;;;;;10526776;28;19994;-78
2021/05/31 03:48:35;;;;;;;;;;;8.60;99.90;;;;;;10499382;28;20374;-79
2021/05/31 03:53:39;;;;;;;;;;;8.80;99.90;;;;;;10499568;28;19928;-78
2021/05/31 03:58:42;;;;;;;;;;;8.80;99.90;;;;;;10532531;28;19978;-78
2021/05/31 04:03:44;;;;;;;;;;;8.80;99.90;;;;;;10500698;28;19924;-78
2021/05/31 04:14:08;;;;;;;;;;;9.50;99.90;;;;;;10512944;28;19963;-78
2021/05/31 04:19:11;;;;;;;;;;;10.50;99.90;;;;;;10526626;28;19972;-78
2021/05/31 04:24:13;;;;;;;;;;;12.90;99.90;;;;;;10534041;28;19978;-79
2021/05/31 04:29:15;;;;;;;;;;;12.80;99.90;;;;;;10528689;28;19924;-79
2021/05/31 04:34:17;;;;;;;;;;;11.30;99.90;;;;;;10517568;28;20009;-79
2021/05/31 04:39:19;;;;;;;;;;;10.50;99.90;;;;;;10518971;28;20373;-79
2021/05/31 04:44:21;;;;;;;;;;;10.00;99.90;;;;;;10523109;28;19978;-79
2021/05/31 04:49:22;;;;;;;;;;;10.70;99.90;;;;;;10533870;28;19928;-79
2021/05/31 04:54:24;;;;;;;;;;;13.10;99.90;;;;;;10491318;28;19971;-79
2021/05/31 04:59:26;;;;;;;;;;;15.60;99.90;;;;;;10519307;28;19925;-79
2021/05/31 05:04:28;;;;;;;;;;;17.90;96.50;;;;;;10499915;28;19963;-79
2021/05/31 05:09:30;;;;;;;;;;;17.80;93.70;;;;;;10533332;28;20332;-79
2021/05/31 05:14:32;;;;;;;;;;;20.40;76.60;;;;;;10486964;28;20417;-79
2021/05/31 05:19:34;;;;;;;;;;;22.20;65.50;;;;;;10504910;28;19959;-79
2021/05/31 05:24:36;;;;;;;;;;;20.20;61.80;;;;;;10519767;28;20018;-79
2021/05/31 05:29:37;;;;;;;;;;;16.90;74.80;;;;;;10522928;28;19955;-79
2021/05/31 05:34:39;;;;;;;;;;;15.30;86.00;;;;;;10493009;28;19985;-79
2021/05/31 05:49:50;;;;;;;;;;;14.00;99.90;;;;;;10532100;28;20015;-79
2021/05/31 05:54:52;;;;;;;;;;;14.10;99.90;;;;;;10508064;28;20388;-79
2021/05/31 05:59:54;;;;;;;;;;;14.10;99.90;;;;;;10520681;28;20024;-79
2021/05/31 06:04:56;;;;;;;;;;;13.90;99.90;;;;;;10521934;28;19970;-79
2021/05/31 06:09:58;;;;;;;;;;;13.70;99.90;;;;;;10531103;28;19939;-79
2021/05/31 06:15:01;;;;;;;;;;;13.80;99.90;;;;;;10527680;28;20400;-79
2021/05/31 06:20:04;;;;;;;;;;;13.70;99.90;;;;;;10514943;28;19928;-79
2021/05/31 06:25:07;;;;;;;;;;;13.90;99.90;;;;;;10520711;28;20343;-79
2021/05/31 06:30:09;;;;;;;;;;;13.70;99.90;;;;;;10515669;28;20355;-79
2021/05/31 06:35:11;;;;;;;;;;;13.80;99.90;;;;;;10521348;28;19928;-79
2021/05/31 06:40:14;;;;;;;;;;;14.20;99.90;;;;;;10531819;28;19967;-79
2021/05/31 06:45:20;;;;;;;;;;;14.00;99.90;;;;;;10500544;28;19967;-79
2021/05/31 06:50:23;;;;;;;;;;;14.10;99.90;;;;;;10519070;28;20385;-79
2021/05/31 06:55:26;;;;;;;;;;;14.30;99.90;;;;;;10492295;28;19971;-82
2021/05/31 07:00:28;;;;;;;;;;;14.50;99.90;;;;;;10501105;28;19990;-82
2021/05/31 07:05:30;;;;;;;;;;;14.90;99.90;;;;;;10473478;28;19924;-82
2021/05/31 07:10:32;;;;;;;;;;;15.30;99.90;;;;;;10525742;28;19924;-82
2021/05/31 07:15:34;;;;;;;;;;;15.90;99.90;;;;;;10500486;28;20014;-83
2021/05/31 07:20:36;;;;;;;;;;;16.50;99.90;;;;;;10505516;28;19978;-83
2021/05/31 07:25:38;;;;;;;;;;;17.70;99.90;;;;;;10506276;28;19932;-83
2021/05/31 07:30:40;;;;;;;;;;;19.50;94.10;;;;;;10503120;28;19932;-83
2021/05/31 07:35:42;;;;;;;;;;;21.20;78.50;;;;;;10499273;28;19986;-83
2021/05/31 07:40:44;;;;;;;;;;;21.70;67.70;;;;;;10530835;28;20011;-83
2021/05/31 07:45:47;;;;;;;;;;;22.60;59.50;;;;;;10495728;28;19929;-83
2021/05/31 07:50:50;;;;;;;;;;;22.60;58.10;;;;;;10498954;28;20638;-83
2021/05/31 07:55:52;;;;;;;;;;;23.00;54.40;;;;;;10518833;28;19928;-83
2021/05/31 08:00:53;;;;;;;;;;;22.70;54.30;;;;;;10538979;28;20601;-83
2021/05/31 08:05:56;;;;;;;;;;;23.30;52.40;;;;;;10495996;28;19994;-84
2021/05/31 08:10:58;;;;;;;;;;;23.30;51.40;;;;;;10553494;28;19950;-81
2021/05/31 08:16:00;;;;;;;;;;;23.80;50.20;;;;;;10500377;28;19930;-81
2021/05/31 08:21:04;;;;;;;;;;;24.40;48.80;;;;;;10495085;28;19960;-81
2021/05/31 08:26:05;;;;;;;;;;;24.00;47.60;;;;;;10550448;27;19924;-81
2021/05/31 08:31:08;;;;;;;;;;;24.10;44.20;;;;;;10523482;28;19928;-81
2021/05/31 08:36:10;;;;;;;;;;;23.90;45.50;;;;;;10535734;28;19924;-80
2021/05/31 08:41:12;;;;;;;;;;;24.00;45.00;;;;;;10459721;28;19974;-81
2021/05/31 08:46:14;;;;;;;;;;;24.00;43.70;;;;;;10493706;28;20015;-81
2021/05/31 08:51:18;;;;;;;;;;;24.00;41.40;;;;;;10535568;28;20628;-81
2021/05/31 08:56:20;;;;;;;;;;;24.00;40.70;;;;;;10471238;28;19968;-81
2021/05/31 09:01:24;;;;;;;;;;;23.90;39.00;;;;;;10499198;28;19971;-81
2021/05/31 09:06:26;;;;;;;;;;;23.20;40.40;;;;;;10541272;28;19936;-82
2021/05/31 09:11:29;;;;;;;;;;;23.60;42.20;;;;;;10539975;28;19928;-81
2021/05/31 09:16:32;;;;;;;;;;;24.10;40.40;;;;;;10497243;28;20027;-81
2021/05/31 09:21:35;;;;;;;;;;;23.60;38.90;;;;;;10496066;28;19950;-81
2021/05/31 09:26:47;;;;;;;;;;;23.20;40.30;;;;;;10510988;28;20039;-80
2021/05/31 09:31:57;;;;;;;;;;;23.30;41.10;;;;;;10538898;28;19950;-81
2021/05/31 09:37:01;;;;;;;;;;;23.00;40.40;;;;;;10483366;28;19924;-81
2021/05/31 09:42:14;;;;;;;;;;;23.20;41.50;;;;;;10566699;27;19931;-82
2021/05/31 09:47:25;;;;;;;;;;;23.40;42.80;;;;;;10494278;28;20393;-82
2021/05/31 09:52:27;;;;;;;;;;;23.70;42.60;;;;;;10490120;28;19924;-82
2021/05/31 09:57:30;;;;;;;;;;;23.60;41.50;;;;;;10480831;28;19924;-80
2021/05/31 10:13:12;;;;;;;;;;;23.40;41.30;;;;;;10491476;28;20034;-81
2021/05/31 10:18:15;;;;;;;;;;;23.30;42.50;;;;;;10494528;28;19982;-81
2021/05/31 10:23:17;;;;;;;;;;;23.10;41.60;;;;;;10509242;28;19971;-81
2021/05/31 10:28:20;;;;;;;;;;;23.20;41.30;;;;;;10501617;28;20352;-81
2021/05/31 10:33:24;;;;;;;;;;;23.60;41.90;;;;;;10508645;28;19932;-80
2021/05/31 10:38:34;;;;;;;;;;;22.90;42.00;;;;;;10511051;28;19931;-82
2021/05/31 10:43:41;;;;;;;;;;;22.60;41.40;;;;;;10523704;28;19928;-81
2021/05/31 10:48:49;;;;;;;;;;;22.10;42.30;;;;;;10519749;28;20428;-81
2021/05/31 10:53:51;;;;;;;;;;;22.10;44.00;;;;;;10517519;28;19924;-81
2021/05/31 10:58:54;;;;;;;;;;;22.50;41.90;;;;;;10510585;28;20348;-81
2021/05/31 11:04:07;;;;;;;;;;;22.20;40.30;;;;;;10506370;28;19924;-82
2021/05/31 11:09:09;;;;;;;;;;;22.10;42.50;;;;;;10541128;28;19964;-82
2021/05/31 11:14:12;;;;;;;;;;;22.20;43.90;;;;;;10522807;28;20377;-82
2021/05/31 11:19:13;;;;;;;;;;;21.90;44.80;;;;;;10482942;28;19932;-81
2021/05/31 11:24:18;;;;;;;;;;;21.80;43.70;;;;;;10500065;28;19924;-81
2021/05/31 11:29:20;;;;;;;;;;;21.80;44.40;;;;;;10511560;28;19982;-81
2021/05/31 11:34:24;;;;;;;;;;;21.90;45.20;;;;;;10489265;28;19932;-81
2021/05/31 11:39:34;;;;;;;;;;;21.80;43.00;;;;;;10527811;28;20397;-81
2021/05/31 11:44:37;;;;;;;;;;;21.90;43.20;;;;;;10495530;28;19929;-81
2021/05/31 11:49:39;;;;;;;;;;;22.20;42.80;;;;;;10529650;27;20680;-81
2021/05/31 11:54:42;;;;;;;;;;;22.00;43.40;;;;;;10486173;28;19924;-81
2021/05/31 11:59:45;;;;;;;;;;;22.10;43.00;;;;;;10487870;28;19975;-81
2021/05/31 12:04:50;;;;;;;;;;;22.00;41.90;;;;;;10473908;28;19928;-81
2021/05/31 12:09:52;;;;;;;;;;;22.00;43.30;;;;;;10481121;28;19963;-81
2021/05/31 12:14:55;;;;;;;;;;;21.80;44.60;;;;;;10495734;28;19974;-82
2021/05/31 12:19:57;;;;;;;;;;;22.20;45.90;;;;;;10528811;28;19998;-82
2021/05/31 12:25:00;;;;;;;;;;;22.20;42.70;;;;;;10514891;27;19929;-81
2021/05/31 12:30:06;;;;;;;;;;;22.30;44.00;;;;;;10531808;28;19978;-81
2021/05/31 12:35:09;;;;;;;;;;;22.20;43.60;;;;;;10480476;28;19955;-81
2021/05/31 12:40:12;;;;;;;;;;;22.20;43.20;;;;;;10494602;28;19924;-81
2021/05/31 12:45:18;;;;;;;;;;;22.00;40.40;;;;;;10495533;28;20016;-81
2021/05/31 12:50:23;;;;;;;;;;;21.70;42.30;;;;;;10529454;28;19928;-81
2021/05/31 12:55:27;;;;;;;;;;;22.00;41.30;;;;;;10517506;28;19959;-82
2021/05/31 13:00:33;;;;;;;;;;;22.00;41.40;;;;;;10496189;28;19978;-82
2021/05/31 13:05:37;;;;;;;;;;;22.40;43.10;;;;;;10494146;28;19925;-82
2021/05/31 13:10:42;;;;;;;;;;;22.40;43.70;;;;;;10480371;28;20306;-82
2021/05/31 13:15:47;;;;;;;;;;;22.50;43.30;;;;;;10494193;28;19924;-82
2021/05/31 13:20:50;;;;;;;;;;;22.50;41.70;;;;;;10494091;28;19932;-82
2021/05/31 13:25:53;;;;;;;;;;;22.70;41.80;;;;;;10493147;28;20324;-82
2021/05/31 13:30:57;;;;;;;;;;;22.80;41.50;;;;;;10507559;28;19930;-79
2021/05/31 13:36:10;;;;;;;;;;;22.70;41.80;;;;;;10519214;28;19924;-79
2021/05/31 13:41:12;;;;;;;;;;;22.60;39.10;;;;;;10505387;28;19928;-79
2021/05/31 13:46:14;;;;;;;;;;;22.40;39.00;;;;;;10490319;28;19964;-79
2021/05/31 13:51:16;;;;;;;;;;;22.60;41.40;;;;;;10554397;27;19923;-79
2021/05/31 13:56:19;;;;;;;;;;;22.60;41.10;;;;;;10494440;28;19928;-79
2021/05/31 14:01:21;;;;;;;;;;;22.50;39.40;;;;;;10489332;28;20483;-79
2021/05/31 14:06:23;;;;;;;;;;;22.40;40.10;;;;;;10489514;28;19928;-79
2021/05/31 14:11:25;;;;;;;;;;;22.50;40.50;;;;;;10487299;28;20011;-79
2021/05/31 14:16:27;;;;;;;;;;;22.60;39.10;;;;;;10488235;28;20000;-79
2021/05/31 14:21:49;;;;;;;;;;;22.50;39.90;;;;;;10488326;28;20007;-79
2021/05/31 14:26:50;;;;;;;;;;;22.80;40.60;;;;;;10489097;28;20345;-79
2021/05/31 14:31:52;;;;;;;;;;;22.80;40.20;;;;;;10488773;28;20011;-79
2021/05/31 14:36:55;;;;;;;;;;;22.50;39.80;;;;;;10489264;28;19924;-79
2021/05/31 14:41:57;;;;;;;;;;;22.50;40.20;;;;;;10488524;28;19951;-79
2021/05/31 14:46:59;;;;;;;;;;;22.70;39.10;;;;;;10487620;28;19929;-79
2021/05/31 14:52:01;;;;;;;;;;;22.70;40.60;;;;;;10489266;28;19940;-79
2021/05/31 14:57:03;;;;;;;;;;;22.60;40.10;;;;;;10487310;28;20047;-78
2021/05/31 15:02:05;;;;;;;;;;;22.60;38.20;;;;;;10455626;28;20012;-79
2021/05/31 15:07:35;;;;;;;;;;;22.40;38.50;;;;;;10570637;27;19923;-62
2021/05/31 15:12:37;;;;;;;;;;;22.40;37.20;;;;;;10525560;28;20016;-62
2021/05/31 15:17:39;;;;;;;;;;;22.30;37.20;;;;;;10539444;28;19924;-62
2021/05/31 15:22:40;;;;;;;;;;;22.50;40.00;;;;;;10554318;28;19924;-62
2021/05/31 15:27:42;;;;;;;;;;;22.80;39.50;;;;;;10561599;28;19924;-62
2021/05/31 15:32:45;;;;;;;;;;;22.80;40.30;;;;;;10523544;28;19924;-62
2021/05/31 15:37:47;;;;;;;;;;;22.80;39.40;;;;;;10545050;28;19928;-62
2021/05/31 15:42:50;;;;;;;;;;;22.80;37.40;;;;;;10558879;28;20443;-62
2021/05/31 15:47:52;;;;;;;;;;;22.90;38.60;;;;;;10528036;28;20031;-63
2021/05/31 15:52:55;;;;;;;;;;;22.90;39.60;;;;;;10542884;28;19924;-62
2021/05/31 15:57:59;;;;;;;;;;;22.80;37.70;;;;;;10528637;28;19924;-62
2021/05/31 16:03:01;;;;;;;;;;;23.10;38.80;;;;;;10515590;28;20291;-62
2021/05/31 16:08:04;;;;;;;;;;;22.80;38.40;;;;;;10550338;28;19924;-62
2021/05/31 16:13:12;;;;;;;;;;;22.70;39.20;;;;;;10519502;28;20489;-62
2021/05/31 16:18:14;;;;;;;;;;;22.80;39.70;;;;;;10491424;28;20022;-62
2021/05/31 16:23:35;;;;;;;;;;;22.70;38.50;;;;;;10490758;28;19925;-62
2021/05/31 16:28:49;;;;;;;;;;;22.60;38.70;;;;;;10491460;28;20019;-62
2021/05/31 16:33:50;;;;;;;;;;;22.60;38.00;;;;;;10532514;28;20399;-63
2021/05/31 16:38:52;;;;;;;;;;;22.70;39.10;;;;;;10511672;28;19928;-62
2021/05/31 16:43:54;;;;;;;;;;;22.60;38.90;;;;;;10508856;28;20279;-63
2021/05/31 16:48:56;;;;;;;;;;;22.70;39.50;;;;;;10490907;28;20336;-63
2021/05/31 16:53:58;;;;;;;;;;;22.50;38.50;;;;;;10530435;28;20456;-63
2021/05/31 16:59:00;;;;;;;;;;;22.30;38.00;;;;;;10512834;28;20019;-63
2021/05/31 17:04:03;;;;;;;;;;;22.00;38.00;;;;;;10485331;28;19928;-62
2021/05/31 17:09:11;;;;;;;;;;;22.10;37.20;;;;;;10508022;28;19924;-63
2021/05/31 17:19:36;;;;;;;;;;;22.30;39.50;;;;;;10511844;28;20022;-63
2021/05/31 17:24:38;;;;;;;;;;;22.20;39.10;;;;;;10478661;28;19928;-62
2021/05/31 17:29:44;;;;;;;;;;;22.20;39.30;;;;;;10494809;28;19924;-62
2021/05/31 17:34:46;;;;;;;;;;;22.10;38.60;;;;;;10488587;28;19931;-62
2021/05/31 17:39:48;;;;;;;;;;;22.10;38.50;;;;;;10483631;28;20015;-63
2021/05/31 17:44:49;;;;;;;;;;;22.10;37.60;;;;;;10518394;28;19924;-62
2021/05/31 17:49:51;;;;;;;;;;;21.80;36.80;;;;;;10506598;28;19928;-63
2021/05/31 17:54:53;;;;;;;;;;;21.70;37.10;;;;;;10526645;28;20311;-63
2021/05/31 17:59:56;;;;;;;;;;;21.60;36.90;;;;;;10498739;28;20087;-62
2021/05/31 18:04:58;;;;;;;;;;;21.50;36.70;;;;;;10488954;28;20471;-63
2021/05/31 18:10:00;;;;;;;;;;;21.40;39.00;;;;;;10526255;28;19932;-62
2021/05/31 18:15:02;;;;;;;;;;;21.40;38.90;;;;;;10497769;28;20349;-63
2021/05/31 18:20:05;;;;;;;;;;;21.20;37.90;;;;;;10488167;28;20343;-63
2021/05/31 18:25:11;;;;;;;;;;;21.00;40.80;;;;;;10502120;28;19923;-63
2021/05/31 18:30:14;;;;;;;;;;;20.90;41.80;;;;;;10513488;28;20288;-63
2021/05/31 18:35:22;;;;;;;;;;;20.70;42.50;;;;;;10514104;28;19928;-62
2021/05/31 18:40:24;;;;;;;;;;;20.50;43.10;;;;;;10482616;28;20262;-62
2021/05/31 18:45:26;;;;;;;;;;;20.30;43.30;;;;;;10483494;28;19924;-62
2021/05/31 18:50:28;;;;;;;;;;;20.10;43.40;;;;;;10507705;28;19959;-73
2021/05/31 18:55:30;;;;;;;;;;;19.90;44.40;;;;;;10495579;28;20144;-72
2021/05/31 19:00:32;;;;;;;;;;;19.60;45.00;;;;;;10482113;28;20431;-72
2021/05/31 19:05:34;;;;;;;;;;;19.30;46.70;;;;;;10476648;28;19932;-73
2021/05/31 19:10:36;;;;;;;;;;;19.00;47.40;;;;;;10498263;28;20368;-72
2021/05/31 19:15:38;;;;;;;;;;;18.90;47.00;;;;;;10492218;28;20003;-72
2021/05/31 19:20:40;;;;;;;;;;;18.80;46.90;;;;;;10480402;28;19928;-72
2021/05/31 19:25:42;;;;;;;;;;;18.70;47.60;;;;;;10457274;28;19959;-72
2021/05/31 19:30:45;;;;;;;;;;;18.50;48.50;;;;;;10476521;28;20308;-72
2021/05/31 19:35:49;;;;;;;;;;;18.20;49.00;;;;;;10486241;28;20284;-72
2021/05/31 19:40:51;;;;;;;;;;;18.00;50.30;;;;;;10477024;28;19932;-74
2021/05/31 19:45:53;;;;;;;;;;;17.80;51.50;;;;;;10520190;28;20288;-74
2021/05/31 19:51:26;;;;;;;;;;;17.70;51.70;;;;;;10515007;28;20364;-75
2021/05/31 20:01:19;;;;;;;;;;;17.10;53.60;;;;;;10498980;28;19924;-75
2021/05/31 20:06:24;;;;;;;;;;;17.00;55.00;;;;;;10518702;28;19931;-75
2021/05/31 20:11:25;;;;;;;;;;;16.80;56.10;;;;;;10519454;28;19931;-74
2021/05/31 20:16:27;;;;;;;;;;;16.60;56.80;;;;;;10493186;28;19925;-75
2021/05/31 20:21:29;;;;;;;;;;;16.20;57.50;;;;;;10516345;28;19931;-74
2021/05/31 20:26:31;;;;;;;;;;;16.00;58.20;;;;;;10523171;28;20325;-75
2021/05/31 20:31:35;;;;;;;;;;;15.90;58.80;;;;;;10514565;28;20087;-74
2021/05/31 20:36:37;;;;;;;;;;;15.70;59.90;;;;;;10501656;28;19970;-75
2021/05/31 20:41:39;;;;;;;;;;;15.40;60.70;;;;;;10519556;28;19928;-75
2021/05/31 20:46:41;;;;;;;;;;;15.30;60.70;;;;;;10512578;28;20377;-75
2021/05/31 20:51:43;;;;;;;;;;;14.90;61.90;;;;;;10509517;28;19935;-75
2021/05/31 20:56:45;;;;;;;;;;;14.60;63.70;;;;;;10494057;28;20015;-75
2021/05/31 21:01:47;;;;;;;;;;;14.60;64.40;;;;;;10493686;28;19924;-75
2021/05/31 21:06:49;;;;;;;;;;;14.30;67.00;;;;;;10475335;28;20023;-75
2021/05/31 21:11:52;;;;;;;;;;;14.30;68.40;;;;;;10462267;28;20290;-75
2021/05/31 21:16:57;;;;;;;;;;;14.30;70.20;;;;;;10490185;28;19970;-74
2021/05/31 21:22:07;;;;;;;;;;;14.20;72.00;;;;;;10484725;28;20380;-74
2021/05/31 21:27:09;;;;;;;;;;;13.80;78.00;;;;;;10489741;28;20010;-74
2021/05/31 21:32:11;;;;;;;;;;;13.90;80.00;;;;;;10490075;28;20387;-74
2021/05/31 21:37:13;;;;;;;;;;;13.90;82.90;;;;;;10472589;28;19943;-71
2021/05/31 21:42:15;;;;;;;;;;;13.90;85.40;;;;;;10487796;28;19932;-74
2021/05/31 21:47:17;;;;;;;;;;;13.60;89.00;;;;;;10468992;28;19950;-74
2021/05/31 21:52:18;;;;;;;;;;;13.70;91.50;;;;;;10489408;28;20015;-74
2021/05/31 21:57:26;;;;;;;;;;;13.50;94.50;;;;;;10448550;28;19933;-74
2021/05/31 22:02:27;;;;;;;;;;;13.50;96.40;;;;;;10486348;28;19972;-74
2021/05/31 22:07:29;;;;;;;;;;;13.30;98.60;;;;;;10487860;28;19931;-74
2021/05/31 22:12:31;;;;;;;;;;;13.10;99.90;;;;;;10488049;28;19931;-74
2021/05/31 22:17:33;;;;;;;;;;;13.10;99.90;;;;;;10487535;28;19932;-74
2021/05/31 22:27:43;;;;;;;;;;;12.70;99.90;;;;;;10465912;28;19928;-74
2021/05/31 22:32:45;;;;;;;;;;;12.70;99.90;;;;;;10472066;28;19925;-74
2021/05/31 22:37:49;;;;;;;;;;;12.70;99.90;;;;;;10487174;28;19932;-74
2021/05/31 23:14:32;;;;;;;;;;;11.60;99.90;;;;;;10485127;28;20020;-74
2021/05/31 23:19:34;;;;;;;;;;;11.80;99.90;;;;;;10478793;28;19932;-74
2021/05/31 23:24:36;;;;;;;;;;;11.70;99.90;;;;;;10483437;28;19935;-74
2021/05/31 23:29:42;;;;;;;;;;;11.60;99.90;;;;;;10447260;28;20020;-74
2021/05/31 23:34:44;;;;;;;;;;;11.60;99.90;;;;;;10493106;28;19928;-74
2021/05/31 23:39:56;;;;;;;;;;;11.50;99.90;;;;;;10470307;28;20400;-73
2021/05/31 23:44:57;;;;;;;;;;;11.40;99.90;;;;;;10479727;28;19935;-73
2021/05/31 23:49:59;;;;;;;;;;;10.90;99.90;;;;;;10491676;28;19955;-73
2021/05/31 23:55:01;;;;;;;;;;;11.00;99.90;;;;;;10491468;28;20051;-74
